シドニー の空港の天気 - METARとTAF

シドニー国際空港 ( YSSY / SYD ) - オーストラリア ニューサウスウェールズ州、Mascot
飛行場実況気象(Metar)
観測時間08/05 10:30 AEST (08/05 00:30 UTC)
風向・風速西北西 7m/s
視程10km以上
天気現象
なし
気温12℃
湿度32%
気圧1013hPa
METARYSSY 050030Z 29014KT CAVOK 12/M04 Q1013 FM0100 27020G30KT CAVOK FM0030 MOD TURB BLW 5000FT
過去の天気等 Google飛行場航空写真 Wunderground天気予報

過去48時間のMETAR

飛行場予報(TAF)
発表時間: 8/05 09:04 AEST (8/04 23:04 UTC)
予報対象時間: 5日10時 AEST ~ 6日16時 AEST
風向・風速西北西 7m/s
視程10km以上
なし
5日11時 AEST から
風向・風速西 10m/s 瞬間風速 15m/s
視程10km以上
なし
5日20時 AEST から
風向・風速西 6m/s
視程10km以上
なし
6日10時 AEST から
風向・風速西南西 6m/s
視程10km以上
なし
6日13時 AEST から
風向・風速南南東 5m/s
視程10km以上
なし
TAF AMD YSSY 042304Z 0500/0606 29014KT CAVOK
FM050100 26020G30KT CAVOK
FM051000 28012KT CAVOK
FM060000 25012KT CAVOK
FM060300 16010KT CAVOK